sensor_id;sensor_type;location;lat;lon;timestamp;temperature;humidity
18160;DHT22;9205;52.032;4.314;2023-12-14T00:02:13;6.10;99.90
18160;DHT22;9205;52.032;4.314;2023-12-14T00:04:41;6.10;99.90
18160;DHT22;9205;52.032;4.314;2023-12-14T00:07:08;6.10;99.90
18160;DHT22;9205;52.032;4.314;2023-12-14T00:09:36;6.20;99.90
18160;DHT22;9205;52.032;4.314;2023-12-14T00:12:03;6.00;99.90
18160;DHT22;9205;52.032;4.314;2023-12-14T00:14:31;6.60;99.90
18160;DHT22;9205;52.032;4.314;2023-12-14T00:16:58;6.50;99.90
18160;DHT22;9205;52.032;4.314;2023-12-14T00:19:27;6.40;99.90
18160;DHT22;9205;52.032;4.314;2023-12-14T00:21:54;5.70;99.90
18160;DHT22;9205;52.032;4.314;2023-12-14T00:24:21;6.10;99.90
18160;DHT22;9205;52.032;4.314;2023-12-14T00:26:48;5.70;99.90
18160;DHT22;9205;52.032;4.314;2023-12-14T00:29:15;6.30;99.90
18160;DHT22;9205;52.032;4.314;2023-12-14T00:31:42;6.40;99.90
18160;DHT22;9205;52.032;4.314;2023-12-14T00:34:10;5.90;99.90
18160;DHT22;9205;52.032;4.314;2023-12-14T00:36:38;6.20;99.90
18160;DHT22;9205;52.032;4.314;2023-12-14T00:39:05;5.80;99.90
18160;DHT22;9205;52.032;4.314;2023-12-14T00:41:32;5.80;99.90
18160;DHT22;9205;52.032;4.314;2023-12-14T00:44:00;5.90;99.90
18160;DHT22;9205;52.032;4.314;2023-12-14T00:46:27;6.40;99.90
18160;DHT22;9205;52.032;4.314;2023-12-14T00:48:54;5.90;99.90
18160;DHT22;9205;52.032;4.314;2023-12-14T00:51:21;6.50;99.90
18160;DHT22;9205;52.032;4.314;2023-12-14T00:53:50;5.80;99.90
18160;DHT22;9205;52.032;4.314;2023-12-14T00:56:17;6.40;99.90
18160;DHT22;9205;52.032;4.314;2023-12-14T00:58:44;6.40;99.90
18160;DHT22;9205;52.032;4.314;2023-12-14T01:01:11;5.80;99.90
18160;DHT22;9205;52.032;4.314;2023-12-14T01:03:38;5.80;99.90
18160;DHT22;9205;52.032;4.314;2023-12-14T01:06:06;6.40;99.90
18160;DHT22;9205;52.032;4.314;2023-12-14T01:08:33;6.30;99.90
18160;DHT22;9205;52.032;4.314;2023-12-14T01:11:02;6.10;99.90
18160;DHT22;9205;52.032;4.314;2023-12-14T01:13:29;6.30;99.90
18160;DHT22;9205;52.032;4.314;2023-12-14T01:15:56;6.40;99.90
18160;DHT22;9205;52.032;4.314;2023-12-14T01:18:23;6.10;99.90
18160;DHT22;9205;52.032;4.314;2023-12-14T01:20:51;5.80;99.90
18160;DHT22;9205;52.032;4.314;2023-12-14T01:23:18;5.90;99.90
18160;DHT22;9205;52.032;4.314;2023-12-14T01:25:45;6.10;99.90
18160;DHT22;9205;52.032;4.314;2023-12-14T01:28:14;5.90;99.90
18160;DHT22;9205;52.032;4.314;2023-12-14T01:30:41;5.80;99.90
18160;DHT22;9205;52.032;4.314;2023-12-14T01:33:08;6.20;99.90
18160;DHT22;9205;52.032;4.314;2023-12-14T01:35:35;6.00;99.90
18160;DHT22;9205;52.032;4.314;2023-12-14T01:38:02;5.80;99.90
18160;DHT22;9205;52.032;4.314;2023-12-14T01:40:29;6.20;99.90
18160;DHT22;9205;52.032;4.314;2023-12-14T01:43:06;6.00;99.90
18160;DHT22;9205;52.032;4.314;2023-12-14T01:45:37;6.50;99.90
18160;DHT22;9205;52.032;4.314;2023-12-14T01:48:04;5.90;99.90
18160;DHT22;9205;52.032;4.314;2023-12-14T01:50:31;6.50;99.90
18160;DHT22;9205;52.032;4.314;2023-12-14T01:52:59;5.90;99.90
18160;DHT22;9205;52.032;4.314;2023-12-14T01:55:26;6.40;99.90
18160;DHT22;9205;52.032;4.314;2023-12-14T01:57:53;5.90;99.90
18160;DHT22;9205;52.032;4.314;2023-12-14T02:00:28;5.90;99.90
18160;DHT22;9205;52.032;4.314;2023-12-14T02:03:03;6.40;99.90
18160;DHT22;9205;52.032;4.314;2023-12-14T02:05:30;6.30;99.90
18160;DHT22;9205;52.032;4.314;2023-12-14T02:07:57;6.50;99.90
18160;DHT22;9205;52.032;4.314;2023-12-14T02:10:25;5.90;99.90
18160;DHT22;9205;52.032;4.314;2023-12-14T02:12:52;6.20;99.90
18160;DHT22;9205;52.032;4.314;2023-12-14T02:15:19;5.90;99.90
18160;DHT22;9205;52.032;4.314;2023-12-14T02:17:46;6.00;99.90
18160;DHT22;9205;52.032;4.314;2023-12-14T02:20:14;5.90;99.90
18160;DHT22;9205;52.032;4.314;2023-12-14T02:22:52;5.90;99.90
18160;DHT22;9205;52.032;4.314;2023-12-14T02:25:22;6.10;99.90
18160;DHT22;9205;52.032;4.314;2023-12-14T02:27:50;6.10;99.90
18160;DHT22;9205;52.032;4.314;2023-12-14T02:30:18;6.10;99.90
18160;DHT22;9205;52.032;4.314;2023-12-14T02:32:45;6.10;99.90
18160;DHT22;9205;52.032;4.314;2023-12-14T02:35:13;5.90;99.90
18160;DHT22;9205;52.032;4.314;2023-12-14T02:37:40;5.90;99.90
18160;DHT22;9205;52.032;4.314;2023-12-14T02:40:09;6.10;99.90
18160;DHT22;9205;52.032;4.314;2023-12-14T02:42:37;6.50;99.90
18160;DHT22;9205;52.032;4.314;2023-12-14T02:45:05;6.00;99.90
18160;DHT22;9205;52.032;4.314;2023-12-14T02:47:33;5.90;99.90
18160;DHT22;9205;52.032;4.314;2023-12-14T02:50:01;6.40;99.90
18160;DHT22;9205;52.032;4.314;2023-12-14T02:52:35;6.50;99.90
18160;DHT22;9205;52.032;4.314;2023-12-14T02:55:16;6.40;99.90
18160;DHT22;9205;52.032;4.314;2023-12-14T02:57:43;5.90;99.90
18160;DHT22;9205;52.032;4.314;2023-12-14T03:00:12;5.90;99.90
18160;DHT22;9205;52.032;4.314;2023-12-14T03:02:40;6.20;99.90
18160;DHT22;9205;52.032;4.314;2023-12-14T03:05:08;6.50;99.90
18160;DHT22;9205;52.032;4.314;2023-12-14T03:07:35;6.40;99.90
18160;DHT22;9205;52.032;4.314;2023-12-14T03:10:03;6.30;99.90
18160;DHT22;9205;52.032;4.314;2023-12-14T03:12:33;6.00;99.90
18160;DHT22;9205;52.032;4.314;2023-12-14T03:15:00;6.50;99.90
18160;DHT22;9205;52.032;4.314;2023-12-14T03:17:27;6.30;99.90
18160;DHT22;9205;52.032;4.314;2023-12-14T03:19:55;6.30;99.90
18160;DHT22;9205;52.032;4.314;2023-12-14T03:22:22;6.00;99.90
18160;DHT22;9205;52.032;4.314;2023-12-14T03:24:50;6.30;99.90
18160;DHT22;9205;52.032;4.314;2023-12-14T03:27:18;6.30;99.90
18160;DHT22;9205;52.032;4.314;2023-12-14T03:29:50;6.30;99.90
18160;DHT22;9205;52.032;4.314;2023-12-14T03:32:17;6.40;99.90
18160;DHT22;9205;52.032;4.314;2023-12-14T03:34:47;6.30;99.90
18160;DHT22;9205;52.032;4.314;2023-12-14T03:37:15;6.30;99.90
18160;DHT22;9205;52.032;4.314;2023-12-14T03:39:42;6.30;99.90
18160;DHT22;9205;52.032;4.314;2023-12-14T03:42:09;6.20;99.90
18160;DHT22;9205;52.032;4.314;2023-12-14T03:44:38;5.90;99.90
18160;DHT22;9205;52.032;4.314;2023-12-14T03:47:07;5.80;99.90
18160;DHT22;9205;52.032;4.314;2023-12-14T03:49:37;6.30;99.90
18160;DHT22;9205;52.032;4.314;2023-12-14T03:52:04;5.90;99.90
18160;DHT22;9205;52.032;4.314;2023-12-14T03:54:32;6.00;99.90
18160;DHT22;9205;52.032;4.314;2023-12-14T03:56:59;6.20;99.90
18160;DHT22;9205;52.032;4.314;2023-12-14T03:59:27;6.20;99.90
18160;DHT22;9205;52.032;4.314;2023-12-14T04:01:54;6.20;99.90
18160;DHT22;9205;52.032;4.314;2023-12-14T04:04:22;6.30;99.90
18160;DHT22;9205;52.032;4.314;2023-12-14T04:06:50;6.20;99.90
18160;DHT22;9205;52.032;4.314;2023-12-14T04:09:17;5.90;99.90
18160;DHT22;9205;52.032;4.314;2023-12-14T04:11:45;6.30;99.90
18160;DHT22;9205;52.032;4.314;2023-12-14T04:14:12;5.90;99.90
18160;DHT22;9205;52.032;4.314;2023-12-14T04:16:39;6.30;99.90
18160;DHT22;9205;52.032;4.314;2023-12-14T04:19:07;6.20;99.90
18160;DHT22;9205;52.032;4.314;2023-12-14T04:21:38;5.80;99.90
18160;DHT22;9205;52.032;4.314;2023-12-14T04:24:06;5.90;99.90
18160;DHT22;9205;52.032;4.314;2023-12-14T04:26:34;6.30;99.90
18160;DHT22;9205;52.032;4.314;2023-12-14T04:29:05;5.90;99.90
18160;DHT22;9205;52.032;4.314;2023-12-14T04:31:34;5.90;99.90
18160;DHT22;9205;52.032;4.314;2023-12-14T04:34:02;5.90;99.90
18160;DHT22;9205;52.032;4.314;2023-12-14T04:36:29;6.20;99.90
18160;DHT22;9205;52.032;4.314;2023-12-14T04:38:58;6.10;99.90
18160;DHT22;9205;52.032;4.314;2023-12-14T04:41:25;5.90;99.90
18160;DHT22;9205;52.032;4.314;2023-12-14T04:43:52;5.90;99.90
18160;DHT22;9205;52.032;4.314;2023-12-14T04:46:20;6.30;99.90
18160;DHT22;9205;52.032;4.314;2023-12-14T04:48:47;6.00;99.90
18160;DHT22;9205;52.032;4.314;2023-12-14T04:51:14;6.00;99.90
18160;DHT22;9205;52.032;4.314;2023-12-14T04:53:41;6.00;99.90
18160;DHT22;9205;52.032;4.314;2023-12-14T04:56:11;6.00;99.90
18160;DHT22;9205;52.032;4.314;2023-12-14T04:58:40;6.20;99.90
18160;DHT22;9205;52.032;4.314;2023-12-14T05:01:08;5.90;99.90
18160;DHT22;9205;52.032;4.314;2023-12-14T05:03:35;5.90;99.90
18160;DHT22;9205;52.032;4.314;2023-12-14T05:06:03;6.30;99.90
18160;DHT22;9205;52.032;4.314;2023-12-14T05:08:31;5.90;99.90
18160;DHT22;9205;52.032;4.314;2023-12-14T05:10:58;5.90;99.90
18160;DHT22;9205;52.032;4.314;2023-12-14T05:13:27;5.80;99.90
18160;DHT22;9205;52.032;4.314;2023-12-14T05:15:54;5.80;99.90
18160;DHT22;9205;52.032;4.314;2023-12-14T05:18:23;5.70;99.90
18160;DHT22;9205;52.032;4.314;2023-12-14T05:20:50;5.60;99.90
18160;DHT22;9205;52.032;4.314;2023-12-14T05:23:18;5.80;99.90
18160;DHT22;9205;52.032;4.314;2023-12-14T05:25:45;5.50;99.90
18160;DHT22;9205;52.032;4.314;2023-12-14T05:28:13;5.70;99.90
18160;DHT22;9205;52.032;4.314;2023-12-14T05:30:41;5.50;99.90
18160;DHT22;9205;52.032;4.314;2023-12-14T05:33:09;5.40;99.90
18160;DHT22;9205;52.032;4.314;2023-12-14T05:35:36;5.50;99.90
18160;DHT22;9205;52.032;4.314;2023-12-14T05:38:04;5.50;99.90
18160;DHT22;9205;52.032;4.314;2023-12-14T05:40:31;5.40;99.90
18160;DHT22;9205;52.032;4.314;2023-12-14T05:42:58;5.40;99.90
18160;DHT22;9205;52.032;4.314;2023-12-14T05:45:26;5.30;99.90
18160;DHT22;9205;52.032;4.314;2023-12-14T05:47:55;5.40;99.90
18160;DHT22;9205;52.032;4.314;2023-12-14T05:50:23;5.70;99.90
18160;DHT22;9205;52.032;4.314;2023-12-14T05:52:51;5.30;99.90
18160;DHT22;9205;52.032;4.314;2023-12-14T05:55:29;5.40;99.90
18160;DHT22;9205;52.032;4.314;2023-12-14T05:57:56;5.60;99.90
18160;DHT22;9205;52.032;4.314;2023-12-14T06:00:28;5.10;99.90
18160;DHT22;9205;52.032;4.314;2023-12-14T06:02:56;5.40;99.90
18160;DHT22;9205;52.032;4.314;2023-12-14T06:05:24;5.40;99.90
18160;DHT22;9205;52.032;4.314;2023-12-14T06:07:51;5.10;99.90
18160;DHT22;9205;52.032;4.314;2023-12-14T06:10:19;5.50;99.90
18160;DHT22;9205;52.032;4.314;2023-12-14T06:12:47;5.20;99.90
18160;DHT22;9205;52.032;4.314;2023-12-14T06:15:14;4.90;99.90
18160;DHT22;9205;52.032;4.314;2023-12-14T06:17:45;5.40;99.90
18160;DHT22;9205;52.032;4.314;2023-12-14T06:20:21;5.20;99.90
18160;DHT22;9205;52.032;4.314;2023-12-14T06:22:51;5.00;99.90
18160;DHT22;9205;52.032;4.314;2023-12-14T06:25:22;4.90;99.90
18160;DHT22;9205;52.032;4.314;2023-12-14T06:27:49;4.70;99.90
18160;DHT22;9205;52.032;4.314;2023-12-14T06:30:17;5.00;99.90
18160;DHT22;9205;52.032;4.314;2023-12-14T06:32:44;4.60;99.90
18160;DHT22;9205;52.032;4.314;2023-12-14T06:35:12;4.60;99.90
18160;DHT22;9205;52.032;4.314;2023-12-14T06:37:41;5.00;99.90
18160;DHT22;9205;52.032;4.314;2023-12-14T06:40:09;5.00;99.90
18160;DHT22;9205;52.032;4.314;2023-12-14T06:42:39;5.00;99.90
18160;DHT22;9205;52.032;4.314;2023-12-14T06:45:09;4.80;99.90
18160;DHT22;9205;52.032;4.314;2023-12-14T06:47:37;4.90;99.90
18160;DHT22;9205;52.032;4.314;2023-12-14T06:50:07;4.50;99.90
18160;DHT22;9205;52.032;4.314;2023-12-14T06:52:35;5.00;99.90
18160;DHT22;9205;52.032;4.314;2023-12-14T06:55:04;5.00;99.90
18160;DHT22;9205;52.032;4.314;2023-12-14T06:57:32;4.60;99.90
18160;DHT22;9205;52.032;4.314;2023-12-14T07:00:00;4.70;99.90
18160;DHT22;9205;52.032;4.314;2023-12-14T07:02:28;4.50;99.90
18160;DHT22;9205;52.032;4.314;2023-12-14T07:04:55;4.70;99.90
18160;DHT22;9205;52.032;4.314;2023-12-14T07:07:22;4.20;99.90
18160;DHT22;9205;52.032;4.314;2023-12-14T07:09:50;4.90;99.90
18160;DHT22;9205;52.032;4.314;2023-12-14T07:12:19;4.90;99.90
18160;DHT22;9205;52.032;4.314;2023-12-14T07:14:46;4.80;99.90
18160;DHT22;9205;52.032;4.314;2023-12-14T07:17:13;4.90;99.90
18160;DHT22;9205;52.032;4.314;2023-12-14T07:19:40;4.50;99.90
18160;DHT22;9205;52.032;4.314;2023-12-14T07:22:08;4.80;99.90
18160;DHT22;9205;52.032;4.314;2023-12-14T07:24:35;4.30;99.90
18160;DHT22;9205;52.032;4.314;2023-12-14T07:27:03;4.30;99.90
18160;DHT22;9205;52.032;4.314;2023-12-14T07:29:32;4.80;99.90
18160;DHT22;9205;52.032;4.314;2023-12-14T07:31:59;4.50;99.90
18160;DHT22;9205;52.032;4.314;2023-12-14T07:34:26;4.60;99.90
18160;DHT22;9205;52.032;4.314;2023-12-14T07:36:54;4.40;99.90
18160;DHT22;9205;52.032;4.314;2023-12-14T07:39:21;4.30;99.90
18160;DHT22;9205;52.032;4.314;2023-12-14T07:41:48;4.70;99.90
18160;DHT22;9205;52.032;4.314;2023-12-14T07:44:16;5.00;99.90
18160;DHT22;9205;52.032;4.314;2023-12-14T07:46:44;5.10;99.90
18160;DHT22;9205;52.032;4.314;2023-12-14T07:49:12;4.50;99.90
18160;DHT22;9205;52.032;4.314;2023-12-14T07:51:39;5.00;99.90
18160;DHT22;9205;52.032;4.314;2023-12-14T07:54:06;4.90;99.90
18160;DHT22;9205;52.032;4.314;2023-12-14T07:56:34;5.00;99.90
18160;DHT22;9205;52.032;4.314;2023-12-14T07:59:01;4.50;99.90
18160;DHT22;9205;52.032;4.314;2023-12-14T08:01:32;4.50;99.90
18160;DHT22;9205;52.032;4.314;2023-12-14T08:04:01;4.70;99.90
18160;DHT22;9205;52.032;4.314;2023-12-14T08:06:29;4.50;99.90
18160;DHT22;9205;52.032;4.314;2023-12-14T08:08:57;4.90;99.90
18160;DHT22;9205;52.032;4.314;2023-12-14T08:11:24;4.80;99.90
18160;DHT22;9205;52.032;4.314;2023-12-14T08:13:52;4.80;99.90
18160;DHT22;9205;52.032;4.314;2023-12-14T08:16:19;5.20;99.90
18160;DHT22;9205;52.032;4.314;2023-12-14T08:18:49;5.00;99.90
18160;DHT22;9205;52.032;4.314;2023-12-14T08:21:18;4.70;99.90
18160;DHT22;9205;52.032;4.314;2023-12-14T08:23:45;5.40;99.90
18160;DHT22;9205;52.032;4.314;2023-12-14T08:26:12;4.80;99.90
18160;DHT22;9205;52.032;4.314;2023-12-14T08:28:40;5.30;99.90
18160;DHT22;9205;52.032;4.314;2023-12-14T08:31:07;5.50;99.90
18160;DHT22;9205;52.032;4.314;2023-12-14T08:33:36;4.90;99.90
18160;DHT22;9205;52.032;4.314;2023-12-14T08:36:08;5.40;99.90
18160;DHT22;9205;52.032;4.314;2023-12-14T08:38:37;4.90;99.90
18160;DHT22;9205;52.032;4.314;2023-12-14T08:41:04;5.40;99.90
18160;DHT22;9205;52.032;4.314;2023-12-14T08:43:32;5.40;99.90
18160;DHT22;9205;52.032;4.314;2023-12-14T08:45:59;5.70;99.90
18160;DHT22;9205;52.032;4.314;2023-12-14T08:48:27;5.50;99.90
18160;DHT22;9205;52.032;4.314;2023-12-14T08:50:54;5.70;99.90
18160;DHT22;9205;52.032;4.314;2023-12-14T08:53:21;5.60;99.90
18160;DHT22;9205;52.032;4.314;2023-12-14T08:55:51;5.20;99.90
18160;DHT22;9205;52.032;4.314;2023-12-14T08:58:21;5.60;99.90
18160;DHT22;9205;52.032;4.314;2023-12-14T09:00:51;5.20;99.90
18160;DHT22;9205;52.032;4.314;2023-12-14T09:03:19;5.20;99.90
18160;DHT22;9205;52.032;4.314;2023-12-14T09:05:49;5.70;99.90
18160;DHT22;9205;52.032;4.314;2023-12-14T09:08:17;5.60;99.90
18160;DHT22;9205;52.032;4.314;2023-12-14T09:10:44;5.60;99.90
18160;DHT22;9205;52.032;4.314;2023-12-14T09:13:13;5.80;99.90
18160;DHT22;9205;52.032;4.314;2023-12-14T09:15:40;5.60;99.90
18160;DHT22;9205;52.032;4.314;2023-12-14T09:18:07;5.50;99.90
18160;DHT22;9205;52.032;4.314;2023-12-14T09:20:35;5.60;99.90
18160;DHT22;9205;52.032;4.314;2023-12-14T09:23:03;5.40;99.90
18160;DHT22;9205;52.032;4.314;2023-12-14T09:25:30;5.20;99.90
18160;DHT22;9205;52.032;4.314;2023-12-14T09:28:02;5.20;99.90
18160;DHT22;9205;52.032;4.314;2023-12-14T09:30:31;5.50;99.90
18160;DHT22;9205;52.032;4.314;2023-12-14T09:32:58;5.40;99.90
18160;DHT22;9205;52.032;4.314;2023-12-14T09:35:25;5.60;99.90
18160;DHT22;9205;52.032;4.314;2023-12-14T09:37:53;5.90;99.90
18160;DHT22;9205;52.032;4.314;2023-12-14T09:40:22;5.80;99.90
18160;DHT22;9205;52.032;4.314;2023-12-14T09:42:49;5.80;99.90
18160;DHT22;9205;52.032;4.314;2023-12-14T09:45:17;5.80;99.90
18160;DHT22;9205;52.032;4.314;2023-12-14T09:47:49;5.80;99.90
18160;DHT22;9205;52.032;4.314;2023-12-14T09:50:16;6.00;99.90
18160;DHT22;9205;52.032;4.314;2023-12-14T09:52:44;6.10;99.90
18160;DHT22;9205;52.032;4.314;2023-12-14T09:55:14;6.10;99.90
18160;DHT22;9205;52.032;4.314;2023-12-14T09:57:41;5.60;99.90
18160;DHT22;9205;52.032;4.314;2023-12-14T10:00:10;5.90;99.90
18160;DHT22;9205;52.032;4.314;2023-12-14T10:02:40;6.10;99.90
18160;DHT22;9205;52.032;4.314;2023-12-14T10:05:10;6.10;99.90
18160;DHT22;9205;52.032;4.314;2023-12-14T10:07:41;5.80;99.90
18160;DHT22;9205;52.032;4.314;2023-12-14T10:10:10;5.90;99.90
18160;DHT22;9205;52.032;4.314;2023-12-14T10:12:51;6.30;99.90
18160;DHT22;9205;52.032;4.314;2023-12-14T10:15:19;6.00;99.90
18160;DHT22;9205;52.032;4.314;2023-12-14T10:17:51;6.40;99.90
18160;DHT22;9205;52.032;4.314;2023-12-14T10:20:21;6.40;99.90
18160;DHT22;9205;52.032;4.314;2023-12-14T10:22:53;6.00;99.90
18160;DHT22;9205;52.032;4.314;2023-12-14T10:25:22;6.20;99.90
18160;DHT22;9205;52.032;4.314;2023-12-14T10:27:52;6.30;99.90
18160;DHT22;9205;52.032;4.314;2023-12-14T10:30:22;6.20;99.90
18160;DHT22;9205;52.032;4.314;2023-12-14T10:32:50;6.40;99.90
18160;DHT22;9205;52.032;4.314;2023-12-14T10:35:17;6.20;99.90
18160;DHT22;9205;52.032;4.314;2023-12-14T10:37:50;6.10;99.90
18160;DHT22;9205;52.032;4.314;2023-12-14T10:40:19;6.10;99.90
18160;DHT22;9205;52.032;4.314;2023-12-14T10:42:47;6.30;99.90
18160;DHT22;9205;52.032;4.314;2023-12-14T10:45:18;6.10;99.90
18160;DHT22;9205;52.032;4.314;2023-12-14T10:47:46;6.10;99.90
18160;DHT22;9205;52.032;4.314;2023-12-14T10:50:15;6.10;99.90
18160;DHT22;9205;52.032;4.314;2023-12-14T10:52:42;6.30;99.90
18160;DHT22;9205;52.032;4.314;2023-12-14T10:55:18;6.50;99.90
18160;DHT22;9205;52.032;4.314;2023-12-14T10:57:51;6.50;99.90
18160;DHT22;9205;52.032;4.314;2023-12-14T11:00:19;6.40;99.90
18160;DHT22;9205;52.032;4.314;2023-12-14T11:02:47;6.10;99.90
18160;DHT22;9205;52.032;4.314;2023-12-14T11:05:16;6.50;99.90
18160;DHT22;9205;52.032;4.314;2023-12-14T11:07:50;6.50;99.90
18160;DHT22;9205;52.032;4.314;2023-12-14T11:10:23;6.50;99.90
18160;DHT22;9205;52.032;4.314;2023-12-14T11:13:00;6.30;99.90
18160;DHT22;9205;52.032;4.314;2023-12-14T11:15:29;6.50;99.90
18160;DHT22;9205;52.032;4.314;2023-12-14T11:18:25;6.60;99.90
18160;DHT22;9205;52.032;4.314;2023-12-14T11:20:58;6.40;99.90
18160;DHT22;9205;52.032;4.314;2023-12-14T11:23:31;6.60;99.90
18160;DHT22;9205;52.032;4.314;2023-12-14T11:26:03;6.40;99.90
18160;DHT22;9205;52.032;4.314;2023-12-14T11:28:34;6.40;99.90
18160;DHT22;9205;52.032;4.314;2023-12-14T11:31:04;6.50;99.90
18160;DHT22;9205;52.032;4.314;2023-12-14T11:33:33;6.50;99.90
18160;DHT22;9205;52.032;4.314;2023-12-14T11:36:02;6.30;99.90
18160;DHT22;9205;52.032;4.314;2023-12-14T11:38:30;6.20;99.90
18160;DHT22;9205;52.032;4.314;2023-12-14T11:41:01;6.70;99.90
18160;DHT22;9205;52.032;4.314;2023-12-14T11:43:29;6.30;99.90
18160;DHT22;9205;52.032;4.314;2023-12-14T11:45:56;6.20;99.90
18160;DHT22;9205;52.032;4.314;2023-12-14T11:48:24;6.60;99.90
18160;DHT22;9205;52.032;4.314;2023-12-14T11:50:51;6.50;99.90
18160;DHT22;9205;52.032;4.314;2023-12-14T11:53:19;6.10;99.90
18160;DHT22;9205;52.032;4.314;2023-12-14T11:55:47;6.50;99.90
18160;DHT22;9205;52.032;4.314;2023-12-14T11:58:16;6.60;99.90
18160;DHT22;9205;52.032;4.314;2023-12-14T12:00:43;6.40;99.90
18160;DHT22;9205;52.032;4.314;2023-12-14T12:03:13;6.40;99.90
18160;DHT22;9205;52.032;4.314;2023-12-14T12:05:43;6.30;99.90
18160;DHT22;9205;52.032;4.314;2023-12-14T12:08:13;6.30;99.90
18160;DHT22;9205;52.032;4.314;2023-12-14T12:10:43;6.50;99.90
18160;DHT22;9205;52.032;4.314;2023-12-14T12:13:13;6.70;99.90
18160;DHT22;9205;52.032;4.314;2023-12-14T12:15:43;6.40;99.90
18160;DHT22;9205;52.032;4.314;2023-12-14T12:18:12;6.70;99.90
18160;DHT22;9205;52.032;4.314;2023-12-14T12:20:42;6.60;99.90
18160;DHT22;9205;52.032;4.314;2023-12-14T12:23:10;6.60;99.90
18160;DHT22;9205;52.032;4.314;2023-12-14T12:25:37;6.60;99.90
18160;DHT22;9205;52.032;4.314;2023-12-14T12:28:05;6.70;99.90
18160;DHT22;9205;52.032;4.314;2023-12-14T12:30:34;6.50;99.90
18160;DHT22;9205;52.032;4.314;2023-12-14T12:33:01;6.90;99.90
18160;DHT22;9205;52.032;4.314;2023-12-14T12:35:29;6.70;99.90
18160;DHT22;9205;52.032;4.314;2023-12-14T12:37:59;6.50;99.90
18160;DHT22;9205;52.032;4.314;2023-12-14T12:40:28;6.60;99.90
18160;DHT22;9205;52.032;4.314;2023-12-14T12:42:56;6.80;99.90
18160;DHT22;9205;52.032;4.314;2023-12-14T12:45:24;6.60;99.90
18160;DHT22;9205;52.032;4.314;2023-12-14T12:47:54;6.80;99.90
18160;DHT22;9205;52.032;4.314;2023-12-14T12:50:22;6.80;99.90
18160;DHT22;9205;52.032;4.314;2023-12-14T12:52:49;6.90;99.90
18160;DHT22;9205;52.032;4.314;2023-12-14T12:55:17;6.90;99.90
18160;DHT22;9205;52.032;4.314;2023-12-14T12:57:44;6.60;99.90
18160;DHT22;9205;52.032;4.314;2023-12-14T13:00:13;7.00;99.90
18160;DHT22;9205;52.032;4.314;2023-12-14T13:02:42;6.60;99.90
18160;DHT22;9205;52.032;4.314;2023-12-14T13:05:13;7.00;99.90
18160;DHT22;9205;52.032;4.314;2023-12-14T13:07:45;6.60;99.90
18160;DHT22;9205;52.032;4.314;2023-12-14T13:10:13;6.50;99.90
18160;DHT22;9205;52.032;4.314;2023-12-14T13:12:40;7.00;99.90
18160;DHT22;9205;52.032;4.314;2023-12-14T13:15:09;6.60;99.90
18160;DHT22;9205;52.032;4.314;2023-12-14T13:17:36;6.90;99.90
18160;DHT22;9205;52.032;4.314;2023-12-14T13:20:07;7.00;99.90
18160;DHT22;9205;52.032;4.314;2023-12-14T13:22:36;7.10;99.90
18160;DHT22;9205;52.032;4.314;2023-12-14T13:25:04;6.70;99.90
18160;DHT22;9205;52.032;4.314;2023-12-14T13:27:32;6.60;99.90
18160;DHT22;9205;52.032;4.314;2023-12-14T13:30:01;7.10;99.90
18160;DHT22;9205;52.032;4.314;2023-12-14T13:32:32;6.90;99.90
18160;DHT22;9205;52.032;4.314;2023-12-14T13:34:59;6.70;99.90
18160;DHT22;9205;52.032;4.314;2023-12-14T13:37:26;6.70;99.90
18160;DHT22;9205;52.032;4.314;2023-12-14T13:39:55;6.80;99.90
18160;DHT22;9205;52.032;4.314;2023-12-14T13:42:22;6.80;99.90
18160;DHT22;9205;52.032;4.314;2023-12-14T13:44:50;7.00;99.90
18160;DHT22;9205;52.032;4.314;2023-12-14T13:47:17;6.80;99.90
18160;DHT22;9205;52.032;4.314;2023-12-14T13:49:44;7.30;99.90
18160;DHT22;9205;52.032;4.314;2023-12-14T13:52:12;7.20;99.90
18160;DHT22;9205;52.032;4.314;2023-12-14T13:54:39;7.40;99.90
18160;DHT22;9205;52.032;4.314;2023-12-14T13:57:07;7.10;99.90
18160;DHT22;9205;52.032;4.314;2023-12-14T13:59:35;7.50;99.90
18160;DHT22;9205;52.032;4.314;2023-12-14T14:02:02;7.60;99.90
18160;DHT22;9205;52.032;4.314;2023-12-14T14:04:30;7.50;99.90
18160;DHT22;9205;52.032;4.314;2023-12-14T14:06:57;7.10;99.90
18160;DHT22;9205;52.032;4.314;2023-12-14T14:09:25;7.20;99.90
18160;DHT22;9205;52.032;4.314;2023-12-14T14:11:52;7.50;99.90
18160;DHT22;9205;52.032;4.314;2023-12-14T14:14:21;7.20;99.90
18160;DHT22;9205;52.032;4.314;2023-12-14T14:16:48;7.50;99.90
18160;DHT22;9205;52.032;4.314;2023-12-14T14:19:16;7.40;99.90
18160;DHT22;9205;52.032;4.314;2023-12-14T14:21:43;7.10;99.90
18160;DHT22;9205;52.032;4.314;2023-12-14T14:24:10;7.60;99.90
18160;DHT22;9205;52.032;4.314;2023-12-14T14:26:38;7.20;99.90
18160;DHT22;9205;52.032;4.314;2023-12-14T14:29:05;7.40;99.90
18160;DHT22;9205;52.032;4.314;2023-12-14T14:31:38;7.50;99.90
18160;DHT22;9205;52.032;4.314;2023-12-14T14:37:26;7.20;99.90
18160;DHT22;9205;52.032;4.314;2023-12-14T14:39:53;7.20;99.90
18160;DHT22;9205;52.032;4.314;2023-12-14T14:42:21;7.50;99.90
18160;DHT22;9205;52.032;4.314;2023-12-14T14:44:48;7.20;99.90
18160;DHT22;9205;52.032;4.314;2023-12-14T14:47:17;7.30;99.90
18160;DHT22;9205;52.032;4.314;2023-12-14T14:49:45;7.20;99.90
18160;DHT22;9205;52.032;4.314;2023-12-14T14:52:12;7.40;99.90
18160;DHT22;9205;52.032;4.314;2023-12-14T14:55:16;7.20;99.90
18160;DHT22;9205;52.032;4.314;2023-12-14T14:57:47;7.50;99.90
18160;DHT22;9205;52.032;4.314;2023-12-14T15:00:16;7.30;99.90
18160;DHT22;9205;52.032;4.314;2023-12-14T15:02:44;7.40;99.90
18160;DHT22;9205;52.032;4.314;2023-12-14T15:05:14;7.40;99.90
18160;DHT22;9205;52.032;4.314;2023-12-14T15:07:41;7.50;99.90
18160;DHT22;9205;52.032;4.314;2023-12-14T15:10:11;7.30;99.90
18160;DHT22;9205;52.032;4.314;2023-12-14T15:12:39;7.50;99.90
18160;DHT22;9205;52.032;4.314;2023-12-14T15:15:07;7.30;99.90
18160;DHT22;9205;52.032;4.314;2023-12-14T15:17:38;7.30;99.90
18160;DHT22;9205;52.032;4.314;2023-12-14T15:31:27;7.50;1.00
18160;DHT22;9205;52.032;4.314;2023-12-14T15:33:54;7.30;1.00
18160;DHT22;9205;52.032;4.314;2023-12-14T15:36:22;7.20;1.00
18160;DHT22;9205;52.032;4.314;2023-12-14T15:38:50;7.30;1.00
18160;DHT22;9205;52.032;4.314;2023-12-14T15:41:18;7.40;1.00
18160;DHT22;9205;52.032;4.314;2023-12-14T15:43:46;7.40;99.90
18160;DHT22;9205;52.032;4.314;2023-12-14T15:46:13;7.30;99.90
18160;DHT22;9205;52.032;4.314;2023-12-14T15:48:41;7.20;99.90
18160;DHT22;9205;52.032;4.314;2023-12-14T15:51:10;7.30;99.90
18160;DHT22;9205;52.032;4.314;2023-12-14T15:53:37;7.20;99.90
18160;DHT22;9205;52.032;4.314;2023-12-14T15:56:06;7.20;99.90
18160;DHT22;9205;52.032;4.314;2023-12-14T15:58:35;7.30;99.90
18160;DHT22;9205;52.032;4.314;2023-12-14T16:01:03;7.30;99.90
18160;DHT22;9205;52.032;4.314;2023-12-14T16:03:31;7.10;99.90
18160;DHT22;9205;52.032;4.314;2023-12-14T16:06:00;7.10;99.90
18160;DHT22;9205;52.032;4.314;2023-12-14T16:08:27;7.30;99.90
18160;DHT22;9205;52.032;4.314;2023-12-14T16:10:54;7.20;99.90
18160;DHT22;9205;52.032;4.314;2023-12-14T16:13:27;7.20;99.90
18160;DHT22;9205;52.032;4.314;2023-12-14T16:15:57;7.10;99.90
18160;DHT22;9205;52.032;4.314;2023-12-14T16:18:24;7.10;99.90
18160;DHT22;9205;52.032;4.314;2023-12-14T16:20:54;7.00;99.90
18160;DHT22;9205;52.032;4.314;2023-12-14T16:23:21;7.20;99.90
18160;DHT22;9205;52.032;4.314;2023-12-14T16:25:49;7.00;99.90